Tiempo atmosférico en la estación meteorológica de Valdepeñas, Ciudad Real (700 m.)



Fecha
DESCASC
Temp. máxima en grados centígrados (hora)
DESCASC
Temp. mínima en grados centígrados (hora)
DESCASC
Temp. media en grados centígrados
DESCASC
Racha de viento máxima en m/sg (hora)
DESCASC
Velocidad máxima media en intervalos de 10 minutos(hora)
DESCASC
Precipitaciones diarias en mm
DESCASC
Precipitaciones de 00:00 a 06:00 en mm
DESCASC
Precipitaciones de 06:00 a 12:00 en mm
DESCASC
Precipitaciones de 12:00 a 18:00 en mm
DESCASC
Precipitaciones de 18:00 a 24:00 en mm
DESCASC
14-12-2019 10.3 (00:00) 9.2 (22:00) 9.8 6.67 (11:20) 3.61 (02:30) 0 0 0 0 0
13-12-2019 13.1 (13:50) 9.6 (00:00) 11.4 13.06 (11:00) 6.67 (14:40) 0.2 0 0.2 0 0
12-12-2019 9.6 (23:59) 1.5 (08:20) 5.6 11.94 (15:00) 5.83 (15:20) 0.2 0 0 0.2 0
11-12-2019 11.1 (11:30) 0.3 (00:00) 5.7 7.5 (15:20) 3.89 (15:10) 0.2 0 0 0.2 0
10-12-2019 10.5 (15:40) 2.3 (00:00) 6.4 3.61 (06:30) 2.22 (06:30) 0 0 0 0 0
09-12-2019 14.1 (16:00) 6.7 (00:00) 10.4 3.89 (23:59) 2.22 (23:59) 0 0 0 0 0
08-12-2019 13.5 (14:50) -0.5 (-00:0) 6.5 3.61 (19:10) 2.22 (19:10) 0.2 0 0.2 0 0
07-12-2019 6.2 (17:10) 0.4 (00:00) 3.3 2.78 (16:20) 1.39 (22:00) 0 0 0 0 0
06-12-2019 13.8 (15:10) 2.6 (00:00) 8.2 6.39 (16:10) 3.33 (16:30) 0.2 0 0.2 0 0
05-12-2019 11.8 (15:50) 5.7 (00:00) 8.8 7.5 (13:20) 3.89 (13:20) 0.2 0 0.2 0 0
04-12-2019 8 (12:50) 4.4 (00:00) 6.2 5.28 (00:10) 2.78 (00:10) 3.6 0 0 3.2 0.4
03-12-2019 10 (12:30) 5.6 (00:00) 7.8 10 (13:20) 5 (08:10) 0 0 0 0 0
02-12-2019 11.1 (15:00) 6.2 (00:00) 8.7 12.78 (15:00) 6.39 (13:00) 0.2 0 0.2 0 0
01-12-2019 11.7 (12:40) 5.2 (00:00) 8.4 7.78 (13:50) 3.89 (13:20) 1.6 0.2 0 0.2 1.2
30-11-2019 17.3 (14:30) 7.4 (00:00) 12.3 6.94 (23:20) 3.61 (22:50) 0 0 0 0 0
29-11-2019 13.3 (11:30) 9.1 (00:00) 11.2 4.72 (11:20) 2.22 (04:10) 0 0 0 0 0
28-11-2019 11 (14:00) 6.5 (00:00) 8.8 6.39 (12:50) 3.06 (15:50) 0 0 0 0 0
27-11-2019 13.2 (16:30) 7.7 (00:00) 10.4 10 (10:10) 5 (10:20) 0.6 0.6 0 0 0
26-11-2019 16.2 (15:30) 9 (00:00) 12.6 10.28 (20:40) 4.72 (20:50) 0.2 0 0 0 0.2
25-11-2019 15 (15:20) 8.3 (00:00) 11.7 8.89 (13:30) 4.72 (13:30) 0.8 0 0.8 0 0
24-11-2019 11.2 (15:40) 2.5 (00:00) 6.8 7.78 (16:20) 3.33 (16:30) 0 0 0 0 0
23-11-2019 10.7 (15:40) 5 (00:00) 7.8 14.17 (03:10) 5.83 (02:50) 1.2 1.2 0 0 0
22-11-2019 12.5 (15:00) 7.9 (00:00) 10.2 12.22 (15:00) 5.56 (14:50) 14 0.4 0 12.4 1.2
21-11-2019 10.5 (14:20) 6.3 (00:00) 8.4 6.67 (14:10) 3.33 (14:10) 1.4 0.2 0 0.4 0.8
20-11-2019 10.1 (13:00) 0.9 (00:00) 5.5 7.22 (13:50) 3.33 (13:50) 3.6 0 0 3.4 0.2
19-11-2019 11.3 (14:50) -0.8 (-00:0) 5.3 3.89 (15:40) 1.67 (13:10) 0 0 0 0 0
18-11-2019 10.3 (14:00) 2.3 (00:00) 6.3 8.33 (00:50) 3.89 (14:50) 7.4 5 2.4 0 0
17-11-2019 8.7 (23:20) 0.7 (00:00) 4.7 7.78 (13:30) 3.89 (15:00) 6.6 0 0 0 6.6
16-11-2019 9.8 (15:40) -1.1 (-00:0) 4.4 5 (15:50) 2.5 (19:30) 0.2 0 0.2 0 0

Gráficas

Temp. máximas Temp. mínimas Temp. medias Precipitaciones Rachas de viento máximas Velocidades máximas media en intervalos de 10 minutos

Datos horarios

Fecha y hora oficial Temperatura (ºC) Velocidad del viento (km/h) Dirección del viento Racha (km/h) Dirección de racha Precipitación (mm) Presión (hPa) Tendencia (hPa) Humedad (%)
2019-12-15 23:00:00 6.1 2 Este 5 Sudeste 0 930.2 -1.3 81
2019-12-15 22:00:00 7.4 3 Sur 8 Sur 0 930.9 -0.9 76
2019-12-15 21:00:00 7.7 2 Sudeste 8 Este 0 931.1 -0.7 75
2019-12-15 20:00:00 8.2 3 Este 9 Este 0 931.5 -0.9 73
2019-12-15 19:00:00 9.1 2 Este 7 Sudeste 0 931.8 -1.2 70
2019-12-15 18:00:00 10.7 3 Este 8 Sur 0 931.8 -1.7 63
2019-12-15 17:00:00 12.4 4 Sur 12 Sur 0 932.4 -1.9 55
2019-12-15 16:00:00 13.1 5 Sur 14 Sur 0 933 -2.5 51
2019-12-15 15:00:00 12.9 5 Sur 15 Sur 0 933.5 -2.7 51
2019-12-15 14:00:00 12.8 8 Sur 16 Sur 0 934.3 -2.5 51
2019-12-15 13:00:00 12.5 8 Sur 18 Sur 0 935.5 -1 53
2019-12-15 12:00:00 11.3 11 Sur 20 Sur 0 936.2 -0.1 57
2019-12-15 11:00:00 10 8 Sur 15 Sur 0 936.8 0.7 65
2019-12-15 10:00:00 8.8 8 Sudeste 14 Sudeste 0 936.5 0.7 71
2019-12-15 09:00:00 8.1 7 Sudeste 11 Sudeste 0 936.3 0.4 75
2019-12-15 08:00:00 8 7 Sudeste 10 Sudeste 0 936.1 -0.2 75
2019-12-15 07:00:00 8.2 5 Sudeste 10 Sur 0 935.8 -1.1 74
2019-12-15 06:00:00 8.4 0 Calma 9 Sudoeste 0 935.9 -1.2 73
2019-12-15 05:00:00 8.6 2 Sur 12 Sur 0 936.3 -1 71
2019-12-15 04:00:00 8.8 6 Sudoeste 13 Sur 0 936.9 -1 71
2019-12-15 03:00:00 8.9 4 Sur 10 Sudoeste 0 937.1 -1.2 70
2019-12-15 02:00:00 9.1 6 Sudoeste 15 Sur 0 937.3 -1.2 67
2019-12-15 01:00:00 9.1 5 Sudoeste 14 Sur 0 937.9 -0.6 68
2019-12-15 00:00:00 9.2 7 Sur 17 Sur 0 938.3 -0.4 68
2019-12-14 23:00:00 9.2 7 Sur 15 Sur 0 938.5 -0.3 67
2019-12-14 22:00:00 9.2 6 Sur 11 Sudoeste 0 938.5 -0.2 72
2019-12-14 21:00:00 9.5 5 Sur 12 Sur 0 938.7 0.3 73
2019-12-14 20:00:00 9.5 6 Sur 10 Sur 0 938.8 0.3 72
2019-12-14 19:00:00 9.6 6 Sur 13 Sudoeste 0 938.7 0.2 71
2019-12-14 18:00:00 9.9 7 Sudoeste 20 Sudoeste 0 938.4 -0.1 67
2019-12-14 17:00:00 10 8 Sudoeste 21 Sudoeste 0 938.5 -0.4 66
2019-12-14 16:00:00 10 10 Sudoeste 23 Sudoeste 0 938.5 -0.8 64
2019-12-14 15:00:00 9.8 12 Sudoeste 21 Sudoeste 0 938.5 -1.6 66
2019-12-14 14:00:00 9.9 9 Sudoeste 20 Sudoeste 0 938.9 -1.4 69
2019-12-14 13:00:00 9.8 9 Sudoeste 19 Sur 0 939.3 -0.6 68
2019-12-14 12:00:00 9.3 7 Sudoeste 24 Sudoeste 0 940.1 0.7 73
2019-12-14 11:00:00 9.5 9 Sudoeste 19 Sudoeste 0 940.3 1.3 72
2019-12-14 10:00:00 9.4 6 Sudoeste 19 Sur 0 939.9 1.2 76
2019-12-14 09:00:00 9.4 10 Sur 22 Sur 0 939.4 1 75
2019-12-14 08:00:00 9.7 7 Sudoeste 15 Sudoeste 0 939 0.3 80
2019-12-14 07:00:00 9.7 7 Sudoeste 14 Sudoeste 0 938.7 -0.7 82
2019-12-14 06:00:00 9.8 5 Sur 16 Sur 0 938.4 -0.9 83
2019-12-14 05:00:00 9.9 8 Sur 15 Sur 0 938.7 -0.7 82
2019-12-14 04:00:00 10 7 Sur 17 Sur 0 939.4 0 83
2019-12-14 03:00:00 10.2 12 Sur 23 Sur 0 939.3 -0.3 81
2019-12-14 02:00:00 10.2 6 Sur 17 Sur 0 939.4 -0.1 81
2019-12-14 01:00:00 10 9 Sur 15 Sur 0 939.4 0.1 82
2019-12-14 00:00:00 10.3 10 Sur 18 Sur 0 939.6 0.5 82
2019-12-13 23:00:00 10.2 8 Sur 18 Sur 0 939.5 0.6 83
2019-12-13 22:00:00 9.9 8 Sur 20 Sur 0 939.3 0.6 82
2019-12-13 21:00:00 11.4 14 Sur 30 Sur 0 939.1 0.6 75
2019-12-13 20:00:00 11.5 15 Sur 29 Sudoeste 0 938.9 1.2 76
2019-12-13 19:00:00 11.8 9 Sur 30 Sudoeste 0 938.7 1.5 73
2019-12-13 18:00:00 12.1 16 Sudoeste 34 Sur 0 938.5 1.4 72
2019-12-13 17:00:00 12.7 17 Sudoeste 35 Sudoeste 0 937.7 -0.1 70
2019-12-13 16:00:00 13 18 Sudoeste 35 Sudoeste 0 937.2 -0.9 68
2019-12-13 15:00:00 12.8 24 Sudoeste 46 Sudoeste 0 937.1 -1.5 68
2019-12-13 14:00:00 12.9 20 Sudoeste 46 Sudoeste 0 937.8 -0.5 69
2019-12-13 13:00:00 12.5 21 Sudoeste 43 Sudoeste 0 938.1 0.2 72
2019-12-13 12:00:00 11.8 22 Sudoeste 42 Sudoeste 0 938.6 1.5 76
2019-12-13 11:00:00 10.8 22 Sudoeste 47 Sudoeste 0 938.3 1.5 80
2019-12-13 10:00:00 10.4 17 Sudoeste 42 Sudoeste 0 937.9 1.6 82
2019-12-13 09:00:00 10.1 22 Sudoeste 40 Sudoeste 0.2 937.1 1.1 85
2019-12-13 08:00:00 10.6 21 Sudoeste 38 Sudoeste 0 936.8 1 87
2019-12-13 07:00:00 10.8 19 Sudoeste 39 Sudoeste 0 936.3 0.4 87
2019-12-13 06:00:00 11.2 16 Sudoeste 45 Sudoeste 0 936 0.3 85
2019-12-13 05:00:00 11.1 15 Sudoeste 33 Sudoeste 0 935.8 -0.1 86
2019-12-13 04:00:00 10.8 14 Sudoeste 32 Sudoeste 0 935.9 -0.6 87
2019-12-13 03:00:00 10.4 17 Sudoeste 37 Sudoeste 0 935.7 -1.1 87
2019-12-13 02:00:00 10 15 Sudoeste 39 Sudoeste 0 935.9 -0.6 86
2019-12-13 01:00:00 9.9 17 Sudoeste 35 Sudoeste 0 936.5 -0.8 84
2019-12-13 00:00:00 9.6 15 Sudoeste 41 Sudoeste 0 936.8 -0.4 84
2019-12-12 23:00:00 9.2 19 Sudoeste 39 Sudoeste 0 936.5 -1 83
2019-12-12 22:00:00 9.1 15 Sudoeste 39 Sudoeste 0 937.3 -0.6 81
2019-12-12 21:00:00 8.7 18 Sur 36 Sudoeste 0 937.2 -1 81
2019-12-12 20:00:00 8.7 13 Sudoeste 31 Sudoeste 0 937.5 -1 79
2019-12-12 19:00:00 8.6 14 Sudoeste 32 Sudoeste 0 937.9 -0.7 79
2019-12-12 18:00:00 8.2 15 Sur 31 Sudoeste 0 938.2 -0.6 78
2019-12-12 17:00:00 8.1 15 Sudoeste 35 Sudoeste 0.2 938.5 -1 79
2019-12-12 16:00:00 8.6 15 Sudoeste 41 Sudoeste 0 938.6 -1.9 72
2019-12-12 15:00:00 8.2 21 Sudoeste 43 Sudoeste 0 938.8 -3 72
2019-12-12 14:00:00 7.9 18 Sudoeste 37 Sudoeste 0 939.5 -3.2 75
2019-12-12 13:00:00 7.9 16 Sudoeste 35 Sudoeste 0 940.5 -1.2 76
2019-12-12 12:00:00 6.7 14 Sudoeste 30 Sudoeste 0 941.8 0 81
2019-12-12 11:00:00 5.1 12 Sur 18 Sur 0 942.7 0.6 84
2019-12-12 10:00:00 3.6 7 Sur 18 Sur 0 941.7 0.6 88
2019-12-12 09:00:00 2.2 8 Sudeste 14 Sur 0 941.8 0.5 88
2019-12-12 08:00:00 1.6 5 Sudeste 12 Sur 0 942.1 -0.3 89
2019-12-12 07:00:00 1.8 7 Sur 15 Sur 0 941.1 -1.8 91
2019-12-12 06:00:00 2.3 4 Sudeste 13 Sudeste 0 941.3 -1.7 93
2019-12-12 05:00:00 2.3 4 Sudeste 9 Sudeste 0 942.4 -0.6 94
2019-12-12 04:00:00 2.6 4 Sur 14 Sudeste 0 942.9 -0.8 94
2019-12-12 03:00:00 2.2 3 Sudeste 8 Sur 0 943 -0.8 93
2019-12-12 02:00:00 2.8 4 Sur 9 Sudeste 0 943 -1 93
2019-12-12 01:00:00 3.2 4 Sur 10 Sudeste 0 943.7 -0.5 93
2019-12-12 00:00:00 3.5 6 Sudeste 9 Sudeste 0 943.8 -0.2 93
2019-12-11 23:00:00 3.8 4 Sudeste 7 Sudeste 0 944 0.3 92
2019-12-11 22:00:00 4.3 0 Calma 9 Sudoeste 0 944.2 0.8 89
2019-12-11 21:00:00 5.3 4 Sudeste 10 Sudoeste 0 944 1.1 87
2019-12-11 20:00:00 6.6 5 Sur 15 Oeste 0 943.7 1.4 86
2019-12-11 19:00:00 7.6 6 Sudoeste 12 Sudoeste 0 943.4 1.8 85
2019-12-11 18:00:00 8.2 5 Sudoeste 17 Sudoeste 0 942.9 2.1 84
2019-12-11 17:00:00 8.3 8 Sudoeste 19 Sudoeste 0 942.3 1.3 83
2019-12-11 16:00:00 9 8 Oeste 27 Oeste 0 941.6 -0.1 80
2019-12-11 15:00:00 10.2 10 Sudoeste 22 Sur 0 940.8 -1.5 74
2019-12-11 14:00:00 9.7 9 Sudoeste 26 Sudoeste 0.2 941 -1.3 63
2019-12-11 13:00:00 10.3 12 Sudoeste 25 Sudoeste 0 941.7 -0.4 50
2019-12-11 12:00:00 10.4 8 Sudoeste 18 Oeste 0 942.3 0.3 51
2019-12-11 11:00:00 7.9 5 Sur 11 Sur 0 942.3 0.7 64
2019-12-11 10:00:00 4.3 5 Sur -- -- -- 942.1 0.7 80
2019-12-11 09:00:00 0.8 4 Sudeste 7 Norte 0 942 0.4 90
2019-12-11 08:00:00 0.4 2 Nordeste 6 Norte 0 941.6 -0.4 90
2019-12-11 07:00:00 0.5 2 Nordeste 4 Nordeste 0 941.4 -0.9 91
2019-12-11 06:00:00 0.9 0 Calma 9 Norte 0 941.6 -1 91
2019-12-11 05:00:00 0.9 3 Norte 6 Norte 0 942 -1 92
2019-12-11 04:00:00 0.9 0 Calma 8 Norte 0 942.3 -1.1 92
2019-12-11 03:00:00 1 4 Norte 6 Norte 0 942.6 -1.2 92
2019-12-11 02:00:00 1.4 2 Este 10 Norte 0 943 -1 91
2019-12-11 01:00:00 1.9 5 Norte 9 Norte 0 943.4 -0.5 91
2019-12-11 00:00:00 2.5 2 Norte 7 Este 0 943.8 -0.3 89
2019-12-10 23:00:00 3.1 4 Norte 7 Norte 0 944 -0.5 89
2019-12-10 22:00:00 3.7 2 Norte 6 Sudeste 0 943.9 -0.5 88
2019-12-10 21:00:00 4.4 0 Calma 8 Este 0 944.1 -0.2 86
2019-12-10 20:00:00 5.5 2 Este 4 Este 0 944.5 0.1 84
2019-12-10 19:00:00 6.3 0 Calma 6 Nordeste 0 944.4 -0.1 79
2019-12-10 18:00:00 8.2 4 Norte 7 Noroeste 0 944.3 -0.7 70
2019-12-10 17:00:00 9.9 5 Norte 12 Noroeste 0 944.4 -1.4 62
2019-12-10 16:00:00 10.4 6 Norte 12 Norte 0 944.5 -2.1 58
2019-12-10 15:00:00 9.8 5 Oeste 13 Oeste 0 945 -2.1 70
2019-12-10 14:00:00 9.3 4 Noroeste 9 Noroeste 0 945.8 -1.5 66
2019-12-10 13:00:00 5.9 4 Noroeste 10 Oeste 0 946.6 -0.7 83
2019-12-10 12:00:00 3.8 3 Nordeste 12 Nordeste 0 947.1 -0.1 94
2019-12-10 11:00:00 2.6 4 Nordeste 10 Norte 0 947.3 -0.2 94
2019-12-10 10:00:00 2.8 2 Este 10 Nordeste 0 947.3 -0.1 94
2019-12-10 09:00:00 2.9 5 Este 9 Este 0 947.2 -0.4 94
2019-12-10 08:00:00 3.5 3 Este 9 Noroeste 0 947.5 -0.2 93
2019-12-10 07:00:00 3.9 4 Norte 13 Nordeste 0 947.4 -0.2 92
2019-12-10 06:00:00 4.9 4 Norte 10 Norte 0 947.6 0 91
2019-12-10 05:00:00 5.5 3 Nordeste 7 Este 0 947.7 0.1 93
2019-12-10 04:00:00 5.8 3 Noroeste 10 Nordeste 0 947.6 -0.6 94
2019-12-10 03:00:00 6.1 3 Norte 9 Este 0 947.6 -0.7 94
2019-12-10 02:00:00 6.4 3 Norte 8 Norte 0 947.6 -0.4 94
2019-12-10 01:00:00 6.6 3 Norte 12 Norte 0 948.2 0.1 94
2019-12-10 00:00:00 6.9 8 Noroeste 14 Noroeste 0 948.3 0.8 94
2019-12-09 23:00:00 6.7 6 Norte 13 Norte 0 948 1.1 93
2019-12-09 22:00:00 7.1 6 Norte 13 Norte 0 948.1 1.4 93
2019-12-09 21:00:00 7.6 5 Norte 9 Norte 0 947.5 1.1 89
2019-12-09 20:00:00 8.1 0 Calma 4 Sur 0 946.9 0.7 82
2019-12-09 19:00:00 9.3 0 Calma 8 Sudoeste 0 946.7 0.3 77
2019-12-09 18:00:00 10.8 4 Sudeste 8 Oeste 0 946.4 0.1 67
2019-12-09 17:00:00 12.9 3 Sudoeste 8 Oeste 0 946.2 -0.7 54
2019-12-09 16:00:00 13.8 3 Oeste 10 Sur 0 946.4 -1.4 50
2019-12-09 15:00:00 13.2 3 Oeste 12 Sur 0 946.3 -2 57
2019-12-09 14:00:00 12.5 5 Sudoeste 9 Oeste 0 946.9 -1.4 62
2019-12-09 13:00:00 11.8 3 Sudoeste 8 Norte 0 947.8 0.2 65
2019-12-09 12:00:00 10.3 3 Oeste 9 Norte 0 948.3 1.5 69
2019-12-09 11:00:00 9.2 3 Nordeste 9 Noroeste 0 948.3 1.6 79
2019-12-09 10:00:00 8.3 2 Este 6 Sur 0 947.6 1.4 85
2019-12-09 09:00:00 7.8 3 Este 6 Sudeste 0 946.8 0.8 91
2019-12-09 08:00:00 7.7 3 Norte 9 Norte 0 946.7 0.7 93
2019-12-09 07:00:00 7.7 0 Calma 5 Sudoeste 0 946.2 0.6 93
2019-12-09 06:00:00 7.7 2 Oeste 7 Noroeste 0 946 0.7 92
2019-12-09 05:00:00 8 4 Oeste 9 Oeste 0 946 0.9 91
2019-12-09 04:00:00 8 3 Oeste 5 Oeste 0 945.6 0.2 88
2019-12-09 03:00:00 8.1 3 Sur 12 Sudeste 0 945.3 0.1 86
2019-12-09 02:00:00 8.5 5 Sur 10 Sudeste 0 945.1 0.6 86
2019-12-09 01:00:00 8.6 3 Sudoeste 9 Sudeste 0 945.4 0.7 86
2019-12-09 00:00:00 8.6 3 Sur 8 Sudoeste 0 945.2 1 87
2019-12-08 23:00:00 8.5 4 Sudeste 8 Sur 0 944.5 0.4 87
2019-12-08 22:00:00 8.5 4 Sur 7 Sudoeste 0 944.7 0.7 87
2019-12-08 21:00:00 9.2 3 Sur 8 Sur 0 944.2 0.5 87
2019-12-08 20:00:00 9.4 0 Calma 13 Sudoeste 0 944.1 0.9 84
2019-12-08 19:00:00 9.9 6 Sudoeste 13 Sudoeste 0 944 1 82
2019-12-08 18:00:00 10.5 3 Oeste 12 Oeste 0 943.7 0.7 80
2019-12-08 17:00:00 11.4 4 Oeste 12 Oeste 0 943.2 0.1 75
2019-12-08 16:00:00 12.3 6 Oeste 12 Noroeste 0 943 -0.8 71
2019-12-08 15:00:00 13.5 4 Oeste 9 Oeste 0 943 -1.8 65
2019-12-08 14:00:00 12.7 3 Oeste 11 Sudeste 0 943.1 -1.7 69
2019-12-08 13:00:00 11.7 5 Sur 10 Sudeste 0 943.8 -1 71
2019-12-08 12:00:00 8.5 5 Sur 8 Sudoeste 0 944.8 0.5 83
2019-12-08 11:00:00 5.2 3 Sur 8 Sudeste 0 944.8 0.8 94
2019-12-08 10:00:00 1.5 0 Calma 4 Oeste 0 944.8 1.2 95
2019-12-08 09:00:00 -0.2 0 Calma 6 Este 0 944.3 1.2 95
2019-12-08 08:00:00 0 3 Este 6 Sur 0 944 0.7 95
2019-12-08 07:00:00 0.7 0 Calma 6 Este 0.2 943.6 0.1 95
2019-12-08 06:00:00 1.2 5 Este 9 Este 0 943.1 -0.7 94
2019-12-08 05:00:00 1.9 3 Nordeste 7 Nordeste 0 943.3 -0.6 94
2019-12-08 04:00:00 2.3 4 Este 7 Nordeste 0 943.5 -0.5 94
2019-12-08 03:00:00 2.5 4 Este 9 Este 0 943.8 -0.3 94
2019-12-08 02:00:00 3 4 Nordeste 8 Nordeste 0 943.9 -0.1 94
2019-12-08 01:00:00 3.5 5 Nordeste 9 Nordeste 0 944 0.4 94
2019-12-08 00:00:00 4.1 4 Sur 7 Sur 0 944.1 0.6 94
2019-12-07 23:00:00 4.2 2 Este 9 Sur 0 944 0.8 93
2019-12-07 22:00:00 4.6 5 Sur 8 Sur 0 943.6 0.7 93
2019-12-07 21:00:00 5 3 Este 10 Este 0 943.5 1.1 93
2019-12-07 20:00:00 5.5 4 Este 8 Sudeste 0 943.2 1 92
2019-12-07 19:00:00 5.8 4 Sur 6 Sudoeste 0 942.9 1.1 92
2019-12-07 18:00:00 6 3 Este 8 Oeste 0 942.4 1 92
2019-12-07 17:00:00 6.1 4 Oeste 10 Sudoeste 0 942.2 0.5 92
2019-12-07 16:00:00 5.9 5 Oeste 10 Noroeste 0 941.8 -0.8 92
2019-12-07 15:00:00 5.7 4 Noroeste 9 Oeste 0 941.4 -1.7 93
2019-12-07 14:00:00 5.6 3 Oeste 9 Oeste 0 941.7 -1.3 93
2019-12-07 13:00:00 4.7 3 Sur 7 Noroeste 0 942.6 0 94
2019-12-07 12:00:00 3.4 2 Nordeste 8 Sudoeste 0 943.1 1.1 94
2019-12-07 11:00:00 2.5 3 Sudoeste 9 Sur 0 943 1.1 94
2019-12-07 10:00:00 1.3 3 Sur 7 Sudoeste 0 942.6 1.2 94
2019-12-07 09:00:00 0.9 3 Sudoeste 5 Oeste 0 942 1.2 94
2019-12-07 08:00:00 0.7 4 Oeste 9 Noroeste 0 941.9 0.9 94
2019-12-07 07:00:00 0.6 3 Sur 5 Sudoeste 0 941.4 0.3 94
2019-12-07 06:00:00 0.6 2 Sur 3 Sur 0 940.8 0 93
2019-12-07 05:00:00 1.6 2 Noroeste 3 Oeste 0 941 0.3 92
2019-12-07 04:00:00 2.3 0 Calma 4 Sudeste 0 941.1 0.3 92
2019-12-07 03:00:00 3 0 Calma 5 Norte 0 940.8 0.1 92
2019-12-07 02:00:00 3.7 4 Norte 6 Nordeste 0 940.7 0.2 90
2019-12-07 01:00:00 3.9 3 Noroeste 7 Sudeste 0 940.8 0.6 87
2019-12-07 00:00:00 4.5 3 Este 6 Este 0 940.7 0.8 86
2019-12-06 23:00:00 5.5 2 Nordeste 10 Nordeste 0 940.5 0.7 84
2019-12-06 22:00:00 6.6 3 Norte 20 Nordeste 0 940.2 1.2 81
2019-12-06 21:00:00 7.3 12 Nordeste 19 Nordeste 0 939.9 1.2 81
2019-12-06 20:00:00 8.5 9 Nordeste 17 Nordeste 0 939.8 1.3 79
2019-12-06 19:00:00 9.7 8 Nordeste 13 Noroeste 0 939 0.5 79
2019-12-06 18:00:00 11.2 6 Noroeste 19 Noroeste 0 938.7 0.3 77
2019-12-06 17:00:00 12.4 9 Noroeste 23 Norte 0 938.5 -0.3 73
2019-12-06 16:00:00 13.2 10 Noroeste 22 Oeste 0 938.5 -1 68
2019-12-06 15:00:00 13.7 6 Noroeste 17 Oeste 0 938.4 -2 63
2019-12-06 14:00:00 13.2 3 Norte 8 Oeste 0 938.8 -2.1 68
2019-12-06 13:00:00 10.6 3 Noroeste 10 Norte 0 939.5 -0.8 83
2019-12-06 12:00:00 8.2 4 Norte 9 Oeste 0 940.4 0.6 93
2019-12-06 11:00:00 4.8 2 Noroeste 5 Oeste 0 940.9 1.6 93
2019-12-06 10:00:00 3.3 2 Sudeste 4 Sur 0.2 940.3 1.7 93
2019-12-06 09:00:00 2.9 2 Nordeste 6 Norte 0 939.8 1.6 93
2019-12-06 08:00:00 2.7 4 Norte 6 Norte 0 939.3 1.2 93
2019-12-06 07:00:00 2.7 2 Norte 6 Nordeste 0 938.6 0.4 92
2019-12-06 06:00:00 3.1 0 Calma 11 Nordeste 0 938.2 0.4 92
2019-12-06 05:00:00 3.2 0 Calma 7 Nordeste 0 938.1 0.3 91
2019-12-06 04:00:00 3.9 0 Calma 8 Nordeste 0 938.2 0.1 90
2019-12-06 03:00:00 5 4 Nordeste 13 Nordeste 0 937.8 -0.2 90
2019-12-06 02:00:00 5.1 6 Nordeste 14 Nordeste 0 937.8 0 90
2019-12-06 01:00:00 5.1 4 Norte 16 Nordeste 0 938.1 0.6 88
2019-12-06 00:00:00 5.9 9 Nordeste 24 Nordeste 0 938 1 87
2019-12-05 23:00:00 5.8 10 Nordeste 15 Nordeste 0 937.8 1.1 89
2019-12-05 22:00:00 6.1 9 Nordeste 17 Nordeste 0 937.5 1.6 87
2019-12-05 21:00:00 6.9 8 Nordeste 17 Nordeste 0 937 1.5 84
2019-12-05 20:00:00 7.1 6 Nordeste 15 Nordeste 0 936.7 1.9 80
2019-12-05 19:00:00 8.2 8 Nordeste 19 Este 0 935.9 1.7 76
2019-12-05 18:00:00 9.3 7 Nordeste 16 Nordeste 0 935.5 1.6 70
2019-12-05 17:00:00 10.7 6 Nordeste 20 Nordeste 0 934.8 0.8 67
2019-12-05 16:00:00 11.6 11 Nordeste 23 Nordeste 0 934.2 0.1 63
2019-12-05 15:00:00 11.5 12 Nordeste 25 Nordeste 0 933.9 -0.4 66
2019-12-05 14:00:00 10.6 9 Nordeste 27 Nordeste 0 934 -0.3 70
2019-12-05 13:00:00 9.8 9 Norte 21 Norte 0 934.1 0.4 78
2019-12-05 12:00:00 7.8 9 Norte 23 Noroeste 0 934.3 1.3 87
2019-12-05 11:00:00 7.4 8 Noroeste 20 Norte 0 934.3 1.7 87
2019-12-05 10:00:00 7 5 Noroeste 15 Noroeste 0 933.7 1.9 90
2019-12-05 09:00:00 6.7 6 Norte 13 Norte 0 933 1.8 92
2019-12-05 08:00:00 6.6 6 Noroeste 11 Noroeste 0 932.6 1.6 92
2019-12-05 07:00:00 6.5 2 Nordeste 4 Norte 0.2 931.8 1 93
2019-12-05 06:00:00 6.8 0 Calma 9 Norte 0 931.2 0.7 93
2019-12-05 05:00:00 6.7 2 Norte 6 Norte 0 931 1.1 93
2019-12-05 04:00:00 6.7 4 Norte 8 Noroeste 0 930.8 1 93
2019-12-05 03:00:00 6.5 2 Norte 11 Noroeste 0 930.5 1 92
2019-12-05 02:00:00 6.5 2 Noroeste 6 Norte 0 929.9 0.6 92
2019-12-05 01:00:00 7 2 Noroeste 4 Sur 0 929.8 0.8 92
2019-12-05 00:00:00 7.4 3 Noroeste 5 Norte 0 929.5 0.9 92
2019-12-04 23:00:00 7.5 0 Calma 4 Sur 0 929.3 1.2 92
2019-12-04 22:00:00 7.4 3 Oeste 7 Oeste 0 929 1.2 92
2019-12-04 21:00:00 7.3 3 Oeste 8 Oeste 0 928.6 1.1 92
2019-12-04 20:00:00 7.5 3 Sudoeste 6 Oeste 0.2 928.1 1.1 92
2019-12-04 19:00:00 7.5 2 Sur 4 Noroeste 0.2 927.8 1 92
2019-12-04 18:00:00 7.5 3 Oeste 11 Oeste 0 927.5 1.2 92
2019-12-04 17:00:00 7.7 4 Sudoeste 10 Sudoeste 1.6 927 0.5 92
2019-12-04 16:00:00 7.6 5 Sudoeste 12 Sudoeste 0.4 926.8 -0.3 90
2019-12-04 15:00:00 7.7 5 Sudoeste 14 Oeste 0.4 926.3 -1.4 88
2019-12-04 14:00:00 7.9 5 Sudoeste 12 Oeste 0.8 926.5 -1.6 88
2019-12-04 13:00:00 8 5 Oeste 13 Oeste 0 927.1 -1.2 85
2019-12-04 12:00:00 7.7 6 Oeste 16 Noroeste 0 927.7 -0.3 85
2019-12-04 11:00:00 7.5 7 Noroeste 15 Noroeste 0 928.1 -0.2 83
2019-12-04 10:00:00 6.3 4 Noroeste 10 Noroeste 0 928.3 0.1 90
2019-12-04 09:00:00 5.9 4 Noroeste 12 Noroeste 0 928 -0.4 90
2019-12-04 08:00:00 5.8 6 Norte 13 Noroeste 0 928.3 -0.6 90
2019-12-04 07:00:00 5.5 5 Norte 10 Norte 0 928.2 -1.1 90
2019-12-04 06:00:00 5 3 Oeste 8 Noroeste 0 928.4 -1.4 89
2019-12-04 05:00:00 4.5 2 Oeste 9 Oeste 0 928.9 -1.5 89
2019-12-04 04:00:00 4.5 4 Noroeste 12 Noroeste 0 929.3 -1.6 87
2019-12-04 03:00:00 4.5 6 Noroeste 14 Noroeste 0 929.8 -1.5 84
2019-12-04 02:00:00 5.1 2 Noroeste 13 Norte 0 930.4 -1.1 79
2019-12-04 01:00:00 5.5 8 Norte 19 Nordeste 0 930.9 -0.8 77
2019-12-04 00:00:00 5.6 10 Norte 21 Nordeste 0 931.3 -0.2 75
2019-12-03 23:00:00 5.7 8 Nordeste 19 Nordeste 0 931.5 0.1 74
2019-12-03 22:00:00 6.1 10 Nordeste 23 Nordeste 0 931.7 0.6 75
2019-12-03 21:00:00 7 10 Norte 27 Nordeste 0 931.5 0.6 76
2019-12-03 20:00:00 7.4 11 Norte 27 Norte 0 931.4 0.7 77
2019-12-03 19:00:00 7.5 9 Nordeste 27 Norte 0 931.1 0.5 79
2019-12-03 18:00:00 8.1 14 Nordeste 28 Nordeste 0 930.9 0.5 77
2019-12-03 17:00:00 8.7 14 Nordeste 25 Nordeste 0 930.7 0.1 75
2019-12-03 16:00:00 9 14 Norte 25 Nordeste 0 930.6 -0.6 74
2019-12-03 15:00:00 9.5 10 Nordeste 26 Nordeste 0 930.4 -1.3 73
2019-12-03 14:00:00 9.8 11 Norte 36 Nordeste 0 930.6 -1.7 72
2019-12-03 13:00:00 9.7 15 Nordeste 30 Nordeste 0 931.2 -1 70
2019-12-03 12:00:00 9.5 16 Nordeste 30 Norte 0 931.7 -0.2 73
2019-12-03 11:00:00 9 12 Norte 33 Norte 0 932.3 0.5 76
2019-12-03 10:00:00 8.4 14 Norte 27 Norte 0 932.2 0.4 77
2019-12-03 09:00:00 7.9 12 Norte 30 Nordeste 0 931.9 0.2 82
2019-12-03 08:00:00 7.7 15 Nordeste 26 Nordeste 0 931.8 -0.2 81
2019-12-03 07:00:00 7.4 8 Norte 17 Norte 0 931.8 -0.7 81
2019-12-03 06:00:00 7.4 6 Norte 21 Norte 0 931.7 -1.3 81
2019-12-03 05:00:00 8 11 Norte 24 Norte 0 932 -0.9 78
2019-12-03 04:00:00 8.1 11 Norte 27 Norte 0 932.5 -1.2 78
2019-12-03 03:00:00 7.9 14 Norte 27 Norte 0 933 -0.8 77
2019-12-03 02:00:00 7.8 9 Norte 23 Nordeste 0 932.9 -0.8 77
2019-12-03 01:00:00 7.7 7 Norte 23 Norte 0 933.7 -0.1 78
2019-12-03 00:00:00 8.1 12 Norte 28 Nordeste 0 933.8 0.1 77
2019-12-02 23:00:00 8.3 11 Norte 24 Nordeste 0 933.7 0.5 79
2019-12-02 22:00:00 8.3 12 Nordeste 30 Nordeste 0 933.8 1.7 80
2019-12-02 21:00:00 8.3 14 Norte 31 Nordeste 0 933.7 1.8 80
2019-12-02 20:00:00 8.7 13 Norte 27 Norte 0 933.2 1.8 79
2019-12-02 19:00:00 8.8 13 Nordeste 32 Nordeste 0 932.1 1.2 78
2019-12-02 18:00:00 9.1 13 Nordeste 31 Nordeste 0 931.9 1.4 76
2019-12-02 17:00:00 9.8 15 Nordeste 35 Nordeste 0 931.4 0.5 75
2019-12-02 16:00:00 10.3 21 Nordeste 44 Nordeste 0 930.9 -0.2 75
2019-12-02 15:00:00 11.1 21 Nordeste 46 Nordeste 0 930.5 -1 68
2019-12-02 14:00:00 10.3 17 Nordeste 42 Nordeste 0 930.9 -0.4 70
2019-12-02 13:00:00 9.7 23 Nordeste 44 Nordeste 0 931.1 0 73
2019-12-02 12:00:00 8.9 19 Nordeste 41 Norte 0 931.5 0.9 77
2019-12-02 11:00:00 8.6 14 Nordeste 31 Nordeste 0 931.3 1.4 73
2019-12-02 10:00:00 7.4 13 Nordeste 30 Nordeste 0 931.1 1.8 78
2019-12-02 09:00:00 7.1 14 Nordeste 36 Nordeste 0 930.6 1.7 78
2019-12-02 08:00:00 7.3 13 Nordeste 27 Nordeste 0.2 929.9 0.9 80
2019-12-02 07:00:00 7.2 8 Nordeste 30 Nordeste 0 929.3 0.4 87
2019-12-02 06:00:00 6.8 8 Nordeste 20 Nordeste 0 928.9 -0.1 87
2019-12-02 05:00:00 6.3 6 Nordeste 11 Nordeste 0 929 -0.1 89
2019-12-02 04:00:00 7 4 Norte 10 Norte 0 928.9 -0.2 90
2019-12-02 03:00:00 7.2 0 Calma 9 Norte 0 929 -0.2 89
2019-12-02 02:00:00 7.3 4 Nordeste 12 Nordeste 0 929.1 -0.1 89
2019-12-02 01:00:00 7.5 7 Nordeste 14 Sudeste 0 929.1 -0.1 89
2019-12-02 00:00:00 7.3 3 Este 8 Este 0 929.2 -0.2 91
2019-12-01 23:00:00 6.4 2 Este 12 Este 0 929.2 -0.6 89
2019-12-01 22:00:00 6.7 5 Este 12 Este 0 929.2 -0.4 88
2019-12-01 21:00:00 6.5 4 Este 7 Este 0 929.4 0 86
2019-12-01 20:00:00 7.1 2 Nordeste 15 Oeste 0.2 929.8 1 85
2019-12-01 19:00:00 7.9 7 Sur 24 Sur 1 929.6 0.1 83
2019-12-01 18:00:00 9.3 9 Sur 23 Sudeste 0.2 929.4 -0.5 78
2019-12-01 17:00:00 10.2 12 Sudeste 23 Sudeste 0 928.8 -1.7 70
2019-12-01 16:00:00 10.1 11 Sudeste 26 Sur 0 929.5 -1.6 76
2019-12-01 15:00:00 11 11 Sur 26 Sudeste 0 929.9 -2.2 63
2019-12-01 14:00:00 10.4 9 Sur 28 Sur 0 930.5 -2.2 69
2019-12-01 13:00:00 11.3 12 Sur 26 Sur 0 931.1 -1.8 61
2019-12-01 12:00:00 11.2 10 Sur 23 Sur 0 932.1 -0.7 59
2019-12-01 11:00:00 9.8 9 Sur 18 Sur 0 932.7 -0.2 62
2019-12-01 10:00:00 6.9 4 Sur 8 Sur 0 932.9 0.3 85
2019-12-01 09:00:00 5.5 5 Sudeste 8 Sudeste 0 932.8 -0.1 90
2019-12-01 08:00:00 5.6 4 Sur 12 Sudeste 0 932.9 -0.1 87
2019-12-01 07:00:00 6.4 7 Sudeste 11 Sudeste 0 932.6 -0.8 87
2019-12-01 06:00:00 6.7 4 Sur 14 Sudoeste 0 932.9 -0.9 86
2019-12-01 05:00:00 7.9 6 Sudoeste 20 Sudoeste 0 933 -1.2 82
2019-12-01 04:00:00 8.9 5 Sudoeste 19 Sudoeste 0 933.4 -1 82
2019-12-01 03:00:00 9.2 11 Sudoeste 27 Sudoeste 0.2 933.8 -1.2 81
2019-12-01 02:00:00 11 12 Sudoeste 24 Sur 0 934.2 -1.2 87
2019-12-01 01:00:00 11.2 9 Sur 25 Sur 0 934.4 -1.6 82
2019-12-01 00:00:00 11.3 10 Sur 25 Sur 0 935 -1.2 83
2019-11-30 23:00:00 11.1 13 Sudeste 24 Sudeste 0 935.4 -1.2 82
2019-11-30 22:00:00 11.4 10 Sur 21 Sudeste 0 936 -0.7 82
2019-11-30 21:00:00 11.2 9 Sudeste 16 Sur 0 936.2 -0.4 83
2019-11-30 20:00:00 11.3 8 Sur 15 Sur 0 936.6 0.1 81
2019-11-30 19:00:00 11.8 4 Sudoeste 11 Oeste 0 936.7 -0.2 78
2019-11-30 18:00:00 12.7 4 Sudoeste 18 Oeste 0 936.6 -0.7 74
2019-11-30 17:00:00 14.4 5 Oeste 18 Oeste 0 936.5 -1.5 68
2019-11-30 16:00:00 15.9 6 Oeste 22 Sudoeste 0 936.9 -2.1 66
2019-11-30 15:00:00 17 7 Sudoeste 19 Sudoeste 0 937.3 -2.7 56
2019-11-30 14:00:00 17.2 7 Sur 18 Sur 0 938 -2.5 56
2019-11-30 13:00:00 16.1 6 Sur 15 Sur 0 939 -1.5 59
2019-11-30 12:00:00 15.3 6 Sur 13 Sur 0 940 -0.4 65
2019-11-30 11:00:00 12.7 8 Sur 15 Sudeste 0 940.5 0.4 74
2019-11-30 10:00:00 10 6 Sudeste 13 Sudeste 0 940.5 0.1 87
2019-11-30 09:00:00 8 3 Sudeste 7 Sudeste 0 940.4 -0.1 91
2019-11-30 08:00:00 7.4 3 Este 5 Sudeste 0 940.1 0 89
2019-11-30 07:00:00 8.3 2 Sudeste 6 Este 0 940.4 0 87
2019-11-30 06:00:00 9.4 3 Noroeste 7 Este 0 940.5 -0.5 86
2019-11-30 05:00:00 10.4 3 Este 7 Este 0 940.1 -1.1 83
2019-11-30 04:00:00 10.9 4 Este 8 Este 0 940.4 -0.7 81
2019-11-30 03:00:00 10.9 3 Este 5 Este 0 941 0 81
2019-11-30 02:00:00 11.1 0 Calma 4 Sudeste 0 941.2 0.1 79
2019-11-30 01:00:00 11.1 0 Calma 5 Sudeste 0 941.1 -0.1 79
2019-11-30 00:00:00 11.4 4 Sudeste 8 Sur 0 941 -0.3 76
2019-11-29 23:00:00 11.5 3 Sur 8 Sudeste 0 941.1 -0.2 76
2019-11-29 22:00:00 11.6 0 Calma 7 Sudeste 0 941.2 0.1 77
2019-11-29 21:00:00 11.8 3 Sudeste 7 Sudoeste 0 941.3 0.5 78
2019-11-29 20:00:00 12 3 Sur 10 Sur 0 941.3 0.4 78
2019-11-29 19:00:00 12.2 3 Sur 10 Sudoeste 0 941.1 0.5 78
2019-11-29 18:00:00 12.4 4 Sur 14 Sur 0 940.8 0.2 77
2019-11-29 17:00:00 12.6 5 Sudoeste 13 Sudoeste 0 940.9 0.2 76
2019-11-29 16:00:00 12.9 4 Sudoeste 12 Sur 0 940.6 -0.8 76
2019-11-29 15:00:00 12.8 6 Sur 14 Sur 0 940.6 -1 76
2019-11-29 14:00:00 12.8 4 Sudoeste 14 Sudoeste 0 940.7 -0.7 78
2019-11-29 13:00:00 12.8 4 Oeste 14 Sudoeste 0 941.4 0.6 75
2019-11-29 12:00:00 13.1 7 Sudoeste 17 Sur 0 941.6 1.2 72
2019-11-29 11:00:00 12.7 8 Sur 14 Sur 0 941.4 1.4 73
2019-11-29 10:00:00 11.8 5 Sur 11 Sur 0 940.8 1.1 77
2019-11-29 09:00:00 10.7 4 Sur 9 Sur 0 940.4 1 81
2019-11-29 08:00:00 10.2 3 Sudeste 8 Sur 0 940 1 82
2019-11-29 07:00:00 10 3 Sur 10 Sur 0 939.7 0.6 81
2019-11-29 06:00:00 9.9 4 Sudeste 11 Sur 0 939.4 0.3 81
2019-11-29 05:00:00 9.7 2 Sudoeste 14 Sudeste 0 939 0.5 81
2019-11-29 04:00:00 9.5 6 Sudeste 14 Sudeste 0 939.1 0.3 82
2019-11-29 03:00:00 9.4 5 Sudeste 13 Sudeste 0 939.1 0.3 83
2019-11-29 02:00:00 9.4 3 Sur 15 Sudeste 0 938.5 -0.3 83
2019-11-29 01:00:00 9.5 8 Sur 16 Sudeste 0 938.8 0.3 82
2019-11-29 00:00:00 9.1 7 Sudeste 15 Sudeste 0 938.8 0.5 83
2019-11-28 23:00:00 9.8 7 Sudeste 18 Sudeste 0 938.8 0.7 79
2019-11-28 22:00:00 10.2 7 Sudeste 16 Sudeste 0 938.5 0.8 79
2019-11-28 21:00:00 10.4 9 Sudeste 17 Sudeste 0 938.3 0.7 78
2019-11-28 20:00:00 10.5 8 Sudeste 17 Sudeste 0 938.1 0.5 78
2019-11-28 19:00:00 10.4 7 Sur 16 Sur 0 937.7 0.2 81
2019-11-28 18:00:00 10.5 7 Sur 16 Sur 0 937.6 0.2 84
2019-11-28 17:00:00 10.5 7 Sur 15 Sur 0 937.6 -0.3 84
2019-11-28 16:00:00 10.4 8 Sur 20 Sur 0 937.5 -0.6 82
2019-11-28 15:00:00 11 9 Sur 19 Sur 0 937.4 -1.6 74
2019-11-28 14:00:00 11 6 Sudoeste 17 Sudoeste 0 937.9 -1 72
2019-11-28 13:00:00 10.2 6 Sudoeste 23 Sudoeste 0 938.1 -0.5 76
2019-11-28 12:00:00 9.8 7 Sur 17 Sur 0 939 0.8 78
2019-11-28 11:00:00 8.7 9 Sudeste 18 Sudeste 0 938.9 1.4 84
2019-11-28 10:00:00 8.2 8 Sur 15 Sudeste 0 938.6 1.8 87
2019-11-28 09:00:00 8 6 Sur 16 Sur 0 938.2 1.9 87
2019-11-28 08:00:00 7.1 5 Sudeste 12 Sur 0 937.5 1.5 88
2019-11-28 07:00:00 6.7 4 Sur 13 Sudeste 0 936.8 0.8 88
2019-11-28 06:00:00 6.7 3 Sur 9 Sudeste 0 936.3 0.4 86
2019-11-28 05:00:00 7.1 5 Sur 16 Sur 0 936 -0.1 83
2019-11-28 04:00:00 7.8 8 Sudeste 16 Sudeste 0 936 -0.1 81
2019-11-28 03:00:00 7.5 5 Sur 10 Sur 0 935.9 -0.3 83
2019-11-28 02:00:00 7.1 3 Sur 9 Sur 0 936.1 0.3 85
2019-11-28 01:00:00 7.3 3 Sur 15 Sur 0 936.1 0.5 85
2019-11-28 00:00:00 7.7 6 Sur 12 Sudeste 0 936.2 0.6 85
2019-11-27 23:00:00 8.1 5 Sur 13 Sur 0 935.8 1.5 84
2019-11-27 22:00:00 8.9 5 Sur 14 Sur 0 935.6 1.1 81
2019-11-27 21:00:00 10 8 Sur 14 Sur 0 935.6 1.6 78
2019-11-27 20:00:00 10.1 7 Sudoeste 16 Sudoeste 0 934.3 0.5 79
2019-11-27 19:00:00 10.9 6 Sudoeste 18 Sudoeste 0 934.5 1.1 77
2019-11-27 18:00:00 12.1 8 Sudoeste 18 Sudoeste 0 934 0.5 72
2019-11-27 17:00:00 12.7 7 Sudoeste 22 Sudoeste 0 933.8 -0.4 67
2019-11-27 16:00:00 13 10 Sudoeste 24 Sudoeste 0 933.4 -1 63
2019-11-27 15:00:00 12.9 8 Sudoeste 28 Sudoeste 0 933.5 -1.1 60
2019-11-27 14:00:00 12.2 11 Sudoeste 31 Sudoeste 0 934.2 -0.5 61
2019-11-27 06:00:00 11.2 6 Sur 16 Sudoeste 0 932.3 0.3 86
2019-11-27 05:00:00 11.4 6 Sudoeste 19 Sudoeste 0 932.1 0.3 85
2019-11-27 04:00:00 11.9 7 Sudoeste 18 Sudoeste 0.2 931.8 -0.2 89
2019-11-27 03:00:00 12.2 4 Sur 16 Sudoeste 0 932 0 93
2019-11-27 02:00:00 12.2 9 Sur 23 Sur 0.2 931.8 -0.2 93
2019-11-27 01:00:00 12.1 11 Sur 26 Sur 0.2 932 -0.1 92
2019-11-27 00:00:00 12.1 15 Sur 29 Sur 0 932 -0.3 92
2019-11-26 23:00:00 12 13 Sur 33 Sur 0.2 932 -0.3 90
2019-11-26 22:00:00 12.7 15 Sur 35 Sur 0 932.1 -0.6 84
2019-11-26 21:00:00 13.3 15 Sur 37 Sur 0 932.3 -0.3 77
2019-11-26 20:00:00 13.3 12 Sur 28 Sur 0 932.3 -0.2 79
2019-11-26 19:00:00 13.3 13 Sur 29 Sur 0 932.7 -0.2 81
2019-11-26 18:00:00 13.4 14 Sur 32 Sur 0 932.6 -0.5 82
2019-11-26 17:00:00 14 13 Sur 27 Sur 0 932.5 -1.5 79
2019-11-26 16:00:00 15.1 12 Sur 27 Sur 0 932.9 -1.9 75
2019-11-26 15:00:00 16 13 Sur 26 Sur 0 933.1 -2.4 71
2019-11-26 14:00:00 14.1 10 Sudeste 22 Sur 0 934 -1.9 81
2019-11-26 13:00:00 13.6 9 Sur 25 Sur 0 934.8 -1.1 80
2019-11-26 12:00:00 12.9 7 Sudeste 22 Sur 0 935.5 0 82
2019-11-26 11:00:00 12 10 Sudeste 21 Sudeste 0 935.9 0.3 87
2019-11-26 10:00:00 11.4 9 Sudeste 18 Sudeste 0 935.9 0.9 86
2019-11-26 09:00:00 10 7 Sur 13 Sudeste 0 935.5 0.1 89
2019-11-26 08:00:00 9.1 4 Sur 13 Sudeste 0 935.6 0 90
2019-11-26 07:00:00 9.7 5 Sudeste 13 Sudeste 0 935 -0.7 90
2019-11-26 06:00:00 10.2 5 Sudeste 9 Sudeste 0 935.4 -0.7 89
2019-11-26 05:00:00 10.3 0 Calma 9 Sur 0 935.6 -0.7 89
2019-11-26 04:00:00 10.7 4 Sur 10 Sudeste 0 935.7 -1 88
2019-11-26 03:00:00 11.2 5 Sur 12 Sur 0 936.1 -0.8 86
2019-11-26 02:00:00 11.4 5 Sur 11 Sudeste 0 936.3 -0.7 85
2019-11-26 01:00:00 11.5 5 Sur 13 Sur 0 936.7 -0.3 86
2019-11-26 00:00:00 11.7 8 Sudeste 13 Sudeste 0 936.9 0.3 86
2019-11-25 23:00:00 11.6 6 Sur 12 Sur 0 937 0.7 85
2019-11-25 22:00:00 11.6 3 Sur 10 Sur 0 937 0.9 83
2019-11-25 21:00:00 11.6 6 Sur 12 Sur 0 936.6 0.9 83
2019-11-25 20:00:00 11.7 5 Sur 10 Sur 0 936.3 1 81
2019-11-25 19:00:00 12.4 3 Sudoeste 13 Sudoeste 0 936.1 1.1 80
2019-11-25 18:00:00 13.5 6 Sudoeste 17 Sur 0 935.7 0.9 78
2019-11-25 17:00:00 14.1 9 Sur 23 Sur 0 935.3 0.4 81
2019-11-25 16:00:00 14.3 10 Sur 28 Sur 0 935 -0.3 81
2019-11-25 15:00:00 14.7 13 Sudoeste 28 Sudoeste 0 934.8 -1.1 78
2019-11-25 14:00:00 13.9 12 Sur 32 Sur 0 934.9 -1.1 80
2019-11-25 13:00:00 12.4 12 Sur 25 Sur 0 935.3 -0.6 86
2019-11-25 12:00:00 11.9 12 Sur 23 Sur 0 935.9 0.3 85
2019-11-25 11:00:00 11.2 9 Sur 23 Sur 0 936 0.4 88
2019-11-25 10:00:00 9.7 10 Sudeste 19 Sudeste 0.2 935.9 0.9 92
2019-11-25 09:00:00 9.1 7 Sur 14 Sur 0.4 935.6 0.8 92
2019-11-25 08:00:00 8.9 9 Sur 19 Sudeste 0.2 935.6 0.3 90
2019-11-25 07:00:00 9.1 9 Sudeste 26 Sudeste 0 935 -0.2 87
2019-11-25 06:00:00 8.8 13 Sudeste 23 Sur 0 934.8 -0.5 86
2019-11-25 05:00:00 8.6 7 Sur 21 Sur 0 935.3 -0.2 87
2019-11-25 04:00:00 8.8 9 Sur 19 Sur 0 935.2 -1.1 85
2019-11-25 03:00:00 8.8 10 Sudeste 22 Sudeste 0 935.3 -1.1 84
2019-11-25 02:00:00 8.7 8 Sudeste 26 Sur 0 935.5 -0.9 83
2019-11-25 01:00:00 8.6 9 Sudeste 20 Sudeste 0 936.3 -0.3 81
2019-11-25 00:00:00 8.3 6 Sur 12 Sur 0 936.4 -0.1 80
2019-11-24 23:00:00 8.2 5 Sudeste 16 Sur 0 936.4 0.5 79
2019-11-24 22:00:00 7.9 10 Sudeste 21 Sur 0 936.6 0.7 78
2019-11-24 21:00:00 7.9 8 Sudeste 14 Sudeste 0 936.5 1.2 77
2019-11-24 20:00:00 8.1 7 Sur 14 Sur 0 935.9 1.1 74
2019-11-24 19:00:00 8.2 7 Sur 14 Sur 0 935.9 1.7 71
2019-11-24 18:00:00 9 6 Sudoeste 18 Sudoeste 0 935.3 0.9 65
2019-11-24 17:00:00 10.2 8 Sudoeste 28 Sudoeste 0 934.8 -0.1 58
2019-11-24 16:00:00 10.9 8 Sudoeste 21 Sudoeste 0 934.2 -0.9 53
2019-11-24 15:00:00 10.7 9 Sudoeste 24 Sudoeste 0 934.4 -1.4 56
2019-11-24 14:00:00 9.3 5 Sudoeste 15 Sur 0 934.9 -1.3 64
2019-11-24 13:00:00 8.6 6 Sudoeste 19 Sur 0 935.1 -0.4 68
2019-11-24 12:00:00 8.7 6 Sudoeste 14 Sur 0 935.8 0.5 71
2019-11-24 11:00:00 7.1 5 Sudoeste 13 Sur 0 936.2 1.7 79
2019-11-24 10:00:00 5.2 3 Sudoeste 10 Sudeste 0 935.5 1.8 89
2019-11-24 09:00:00 3.5 5 Sur 9 Sur 0 935.3 2.5 91
2019-11-24 08:00:00 2.7 4 Sudeste 8 Sudeste 0 934.5 2 90
2019-11-24 07:00:00 3.2 5 Sur 13 Sur 0 933.7 1.1 89
2019-11-24 06:00:00 3.9 8 Sur 14 Sur 0 932.8 0.5 88
2019-11-24 05:00:00 4.2 7 Sur 16 Sur 0 932.5 0.4 87
2019-11-24 04:00:00 4.5 9 Sur 16 Sur 0 932.6 0.6 85
2019-11-24 03:00:00 4.8 7 Sudeste 14 Sudeste 0 932.3 0.7 85
2019-11-24 02:00:00 5.2 6 Sur 14 Sudeste 0 932.1 0.6 82
2019-11-24 01:00:00 4.9 4 Sur 11 Sudeste 0 932 0.9 82
2019-11-24 00:00:00 5 3 Sudeste 12 Sur 0 931.6 0.9 81
2019-11-23 23:00:00 5.4 5 Sudeste 12 Sudeste 0 931.5 1.7 79
2019-11-23 22:00:00 5.8 5 Sur 14 Sudoeste 0 931.1 1.9 77
2019-11-23 21:00:00 6.6 6 Sudoeste 17 Sudoeste 0 930.7 2.4 75
2019-11-23 20:00:00 7 5 Oeste 18 Sudoeste 0 929.8 2.4 73
2019-11-23 19:00:00 7.7 6 Sur 20 Sudoeste 0 929.2 2.8 69
2019-11-23 18:00:00 9.1 9 Sudoeste 24 Sudoeste 0 928.3 2.3 61
2019-11-23 17:00:00 10.1 9 Sudoeste 28 Sudoeste 0 927.4 1.8 58
2019-11-23 16:00:00 10.2 11 Sudoeste 30 Sudoeste 0 926.4 1.2 58
2019-11-23 15:00:00 10.2 13 Sudoeste 35 Oeste 0 926 0.8 57
2019-11-23 14:00:00 10.1 13 Sudoeste 32 Sudoeste 0 925.6 1.1 57
2019-11-23 13:00:00 9.2 13 Sudoeste 31 Sudoeste 0 925.2 2 64
2019-11-23 12:00:00 9 13 Sudoeste 34 Oeste 0 925.2 3.2 64
2019-11-23 11:00:00 7.9 15 Sudoeste 39 Sudoeste 0 924.5 3.9 67
2019-11-23 10:00:00 7.7 13 Sudoeste 43 Sudoeste 0 923.2 3.8 73
2019-11-23 09:00:00 7.1 15 Sudoeste 36 Sudoeste 0 922 3.1 76
2019-11-23 08:00:00 6.8 13 Sudoeste 40 Sudoeste 0 920.6 2.2 81
2019-11-23 07:00:00 6.6 15 Sudoeste 32 Sudoeste 0 919.4 1.5 81
2019-11-23 06:00:00 7.3 15 Sudoeste 41 Sudoeste 0 918.9 1.6 80
2019-11-23 05:00:00 7.7 14 Sudoeste 35 Sudoeste 0 918.4 1.4 81
2019-11-23 04:00:00 8.2 13 Sudoeste 51 Sudoeste 0 917.9 0.3 82
2019-11-23 03:00:00 8.4 19 Sur 44 Sur 0.8 917.3 -0.4 87
2019-11-23 02:00:00 8.6 17 Sur 37 Sudoeste 0.4 917 -0.8 82
2019-11-23 01:00:00 9.3 19 Sudoeste 40 Sudoeste 0 917.6 0 74
2019-11-23 00:00:00 10.1 17 Sudoeste 43 Sudoeste 0 917.7 -0.1 78
2019-11-22 23:00:00 9.9 15 Sur 27 Sur 0.4 917.8 0.8 85
2019-11-22 22:00:00 10.1 10 Sudeste 18 Sur 0 917.6 1.2 82
2019-11-22 21:00:00 10.3 8 Sudoeste 29 Sudoeste 0 917.8 2.7 78
2019-11-22 20:00:00 11.4 14 Sudoeste 37 Sudoeste 0 917 1.7 77
2019-11-22 19:00:00 11.8 12 Sudoeste 28 Sudoeste 0.8 916.4 0.3 89
2019-11-22 18:00:00 11.9 12 Sur 31 Sur 4 915.1 -1.3 92
2019-11-22 17:00:00 11.7 15 Sur 33 Sudeste 1.8 915.3 -2.3 92
2019-11-22 16:00:00 11.8 13 Sur 35 Sur 3.8 916.1 -3.6 91
2019-11-22 15:00:00 12.5 18 Sur 44 Sur 0.2 916.4 -5.1 87
2019-11-22 14:00:00 11.7 17 Sudeste 30 Sudeste 1.4 917.6 -4.3 90
2019-11-22 13:00:00 11.4 10 Sudeste 29 Sudeste 1.2 919.7 -3.3 89
2019-11-22 12:00:00 11.9 14 Sur 33 Sudeste 0 921.5 -1.9 84
2019-11-22 11:00:00 11.2 15 Sudeste 32 Sur 0 921.9 -2 85
2019-11-22 10:00:00 10.3 15 Sudeste 26 Sudeste 0 923 -1.3 87
2019-11-22 09:00:00 9.5 10 Sudeste 22 Sudeste 0 923.4 -1.6 86
2019-11-22 08:00:00 8.9 8 Sudeste 16 Sudeste 0 923.9 -1.4 89
2019-11-22 07:00:00 9 10 Sur 20 Sudeste 0 924.3 -1.5 90
2019-11-22 06:00:00 8.9 9 Sudeste 21 Sur 0.4 925 -0.9 92
2019-11-22 05:00:00 8.7 10 Sudeste 18 Sudeste 0 925.3 -1 91
2019-11-22 04:00:00 8.2 5 Sur 13 Sur 0 925.8 -1 92
2019-11-22 03:00:00 8.1 3 Sudeste 8 Sur 0 925.9 -1.2 92
2019-11-22 02:00:00 7.9 2 Sudoeste 9 Sur 0 926.3 -1.4 91
2019-11-22 01:00:00 8.4 3 Sudeste 12 Sudeste 0 926.8 -0.8 91
2019-11-22 00:00:00 8.2 3 Sudeste 9 Sudeste 0 927.1 -0.5 92
2019-11-21 23:00:00 8.2 3 Sudeste 9 Sudeste 0 927.7 0 92
2019-11-21 22:00:00 8.3 2 Sudeste 13 Sudeste 0 927.6 0.1 91
2019-11-21 21:00:00 8.8 5 Sudeste 13 Sudeste 0 927.6 0.2 91
2019-11-21 20:00:00 9 4 Sudeste 9 Sudeste 0 927.7 0.4 91
2019-11-21 19:00:00 9.3 2 Sudeste 10 Sur 0.8 927.5 0.4 90
2019-11-21 18:00:00 9.6 5 Sur 12 Sur 0.2 927.4 0.1 88
2019-11-21 17:00:00 10.1 5 Sur 18 Sur 0 927.3 -0.2 84
2019-11-21 16:00:00 10.3 9 Sur 19 Sur 0 927.1 -0.9 81
2019-11-21 15:00:00 10.2 8 Sur 24 Sur 0 927.3 -1.6 82
2019-11-21 14:00:00 10.4 11 Sur 22 Sur 0 927.5 -1.5 82
2019-11-21 13:00:00 9.9 11 Sur 21 Sur 0.2 928 -0.8 86
2019-11-21 12:00:00 9.5 10 Sur 23 Sudeste 0 928.9 0.1 86
2019-11-21 11:00:00 9 7 Sur 17 Sur 0 929 0.5 87
2019-11-21 10:00:00 8 7 Sudeste 15 Sudeste 0 928.8 0.7 89
2019-11-21 09:00:00 7.1 4 Sudeste 11 Sudeste 0 928.8 0.8 90
2019-11-21 08:00:00 6.9 5 Sur 15 Sudeste 0 928.5 0.4 90
2019-11-21 07:00:00 6.9 8 Sudeste 14 Sudeste 0 928.1 -0.4 91
2019-11-21 06:00:00 6.5 5 Sur 10 Sur 0 928 -0.6 92
2019-11-21 05:00:00 6.8 4 Sur 12 Sur 0 928.1 -0.6 91
2019-11-21 04:00:00 6.9 6 Sur 12 Sudoeste 0 928.5 -0.4 91
2019-11-21 03:00:00 6.8 5 Sur 12 Sur 0.2 928.6 -0.4 90
2019-11-21 02:00:00 6.6 3 Sur 10 Sur 0 928.7 -0.2 90
2019-11-21 01:00:00 6.4 5 Sur 12 Sudeste 0 928.9 0 90
2019-11-21 00:00:00 6.4 6 Sur 11 Sur 0 929 0.6 90
2019-11-20 23:00:00 6.3 8 Sudeste 16 Sur 0 928.9 0.4 88
2019-11-20 22:00:00 6.3 3 Sur 19 Este 0 928.9 0.6 87
2019-11-20 21:00:00 6 4 Sudeste 14 Sudeste 0 928.4 0 88
2019-11-20 20:00:00 5.8 3 Este 12 Este 0 928.5 -0.3 88
2019-11-20 19:00:00 5.6 4 Este 12 Este 0.2 928.3 -0.4 87
2019-11-20 18:00:00 5.5 3 Este 16 Sudeste 1.4 928.4 -0.2 87
2019-11-20 17:00:00 5.5 9 Sudeste 20 Sudeste 1.4 928.8 -0.3 85
2019-11-20 16:00:00 6.8 8 Sudeste 17 Sudeste 0.4 928.7 -1 80
2019-11-20 15:00:00 7.6 12 Sur 23 Sur 0.2 928.6 -1.8 70
2019-11-20 14:00:00 9.3 8 Sur 26 Sur 0 929.1 -1.7 57
2019-11-20 13:00:00 10.1 5 Sudoeste 15 Sur 0 929.7 -1.3 58
2019-11-20 12:00:00 9.5 7 Sur 14 Sur 0 930.4 -0.6 53
2019-11-20 11:00:00 7.7 8 Sur 13 Sur 0 930.8 -0.1 70
2019-11-20 10:00:00 5 3 Sudeste 9 Sudeste 0 931 0 85
2019-11-20 09:00:00 1.7 3 Norte 5 Nordeste 0 931 -0.2 90
2019-11-20 08:00:00 1.3 5 Nordeste 10 Norte 0 930.9 -0.5 90
2019-11-20 07:00:00 1.2 6 Norte 11 Nordeste 0 931 -1.1 91
2019-11-20 06:00:00 1.1 2 Norte 8 Nordeste 0 931.2 -1.2 91
2019-11-20 05:00:00 0.9 3 Norte 6 Norte 0 931.4 -1.2 91
2019-11-20 04:00:00 1.5 3 Norte 7 Norte 0 932.1 -1 90
2019-11-20 03:00:00 2.1 3 Norte 8 Norte 0 932.4 -1 89
2019-11-20 02:00:00 2.7 3 Norte 5 Norte 0 932.6 -1.5 88
2019-11-20 01:00:00 3.5 3 Norte 5 Norte 0 933.1 -1.2 84
2019-11-20 00:00:00 4.7 2 Sudeste 5 Sudeste 0 933.4 -0.8 81
2019-11-19 23:00:00 5.5 2 Sudeste 5 Sudeste 0 934.1 -0.2 80
2019-11-19 22:00:00 5.8 2 Este 6 Este 0 934.3 0.3 79
2019-11-19 21:00:00 6.2 3 Este 5 Este 0 934.2 0.4 76
2019-11-19 20:00:00 6.6 2 Sudeste 5 Este 0 934.3 0.3 73
2019-11-19 19:00:00 7.3 0 Calma 3 Oeste 0 934 -0.2 70
2019-11-19 18:00:00 8.3 0 Calma 8 Oeste 0 933.8 -0.6 64
2019-11-19 17:00:00 9.6 2 Oeste 8 Oeste 0 934 -0.9 57
2019-11-19 16:00:00 10.3 3 Sudoeste 14 Sudoeste 0 934.2 -1.6 50
2019-11-19 15:00:00 10.6 4 Sudoeste 12 Oeste 0 934.4 -2.1 48
2019-11-19 14:00:00 10.4 5 Sudoeste 13 Sudoeste 0 934.9 -2.2 44
2019-11-19 13:00:00 10.6 4 Sur 11 Sur 0 935.8 -1.4 44
2019-11-19 12:00:00 9.3 4 Sur 10 Sur 0 936.5 -0.4 54
2019-11-19 11:00:00 5.4 3 Norte 6 Norte 0 937.1 0.6 82
2019-11-19 10:00:00 2.4 0 Calma 5 Nordeste 0 937.2 1 90
2019-11-19 09:00:00 -0.1 2 Sudeste 7 Sur 0 936.9 0.9 92
2019-11-19 08:00:00 -0.7 2 Nordeste 8 Norte 0 936.5 0.5 91
2019-11-19 07:00:00 -0.6 2 Sudeste 8 Norte 0 936.2 0.2 90
2019-11-19 06:00:00 -0.1 3 Norte 5 Norte 0 936 -0.1 90
2019-11-19 05:00:00 0.2 3 Norte 6 Sudeste 0 936 -0.5 90
2019-11-19 04:00:00 0.7 0 Calma 5 Sudeste 0 936 -0.8 89
2019-11-19 03:00:00 1.5 2 Nordeste 4 Norte 0 936.1 -0.6 88
2019-11-19 02:00:00 1.8 3 Este 7 Este 0 936.5 -0.1 87
2019-11-19 01:00:00 2 4 Sudeste 10 Este 0 936.8 0.3 84
2019-11-19 00:00:00 2.4 2 Sudeste 8 Sur 0 936.7 0.9 83
2019-11-18 23:00:00 3.5 0 Calma 6 Este 0 936.6 1.2 80
2019-11-18 22:00:00 4.5 3 Sur 6 Sur 0 936.5 1.5 78
2019-11-18 21:00:00 5.5 0 Calma 5 Sudoeste 0 935.8 1.5 75
2019-11-18 20:00:00 6.8 0 Calma 8 Norte 0 935.4 1.5 70
2019-11-18 19:00:00 7.9 3 Norte 10 Noroeste 0 935 1.4 66
2019-11-18 18:00:00 8.3 3 Norte 15 Noroeste 0 934.3 0.9 64
2019-11-18 17:00:00 9.8 9 Noroeste 21 Noroeste 0 933.9 0.7 53
2019-11-18 16:00:00 9.9 7 Noroeste 27 Noroeste 0 933.6 0.1 54
2019-11-18 15:00:00 10 11 Noroeste 28 Noroeste 0 933.4 -0.1 52
2019-11-18 14:00:00 10.3 11 Noroeste 22 Noroeste 0 933.2 -0.2 48
2019-11-18 13:00:00 9.6 8 Noroeste 23 Noroeste 0 933.5 0.9 57
2019-11-18 12:00:00 8.7 8 Noroeste 21 Noroeste 0.8 933.5 1.5 64
2019-11-18 11:00:00 6.6 9 Noroeste 18 Noroeste 0.2 933.4 2.5 74
2019-11-18 10:00:00 4.3 2 Sudoeste 6 Sudoeste 0.4 932.6 2 88
2019-11-18 09:00:00 2.8 0 Calma 4 Sudoeste 0.4 932 2.2 91
2019-11-18 08:00:00 2.5 0 Calma 11 Oeste 0.2 930.9 1.6 89
2019-11-18 07:00:00 3.4 3 Noroeste 13 Noroeste 0.4 930.6 1.6 87
2019-11-18 06:00:00 4.2 6 Norte 17 Norte 0.6 929.8 0.9 88
2019-11-18 05:00:00 5.1 5 Norte 13 Noroeste 0.6 929.3 0.3 92
2019-11-18 04:00:00 6.2 3 Noroeste 9 Norte 0.6 929 0.1 92
2019-11-18 03:00:00 6.9 2 Norte 8 Norte 0.8 928.9 0.1 92
2019-11-18 02:00:00 7.3 0 Calma 15 Norte 1.2 929 -0.4 92
2019-11-18 01:00:00 7.4 10 Norte 30 Noroeste 1.2 928.9 -0.3 92
2019-11-18 00:00:00 8.7 8 Sudoeste 24 Sudoeste 1.6 928.8 -1.3 91
2019-11-17 23:00:00 8.4 6 Sudoeste 24 Sur 1.4 929.4 -1.7 91
2019-11-17 22:00:00 7.7 11 Sur 26 Sudeste 0.8 929.2 -2.3 91
2019-11-17 21:00:00 7.3 10 Sur 21 Sur 1.6 930.1 -1.7 91
2019-11-17 20:00:00 7.2 7 Sudeste 20 Sur 1.2 931.1 -1.1 87
2019-11-17 19:00:00 7.7 10 Sudeste 24 Sur 0 931.5 -1.4 82
2019-11-17 18:00:00 7.7 11 Sur 24 Sur 0 931.8 -1.4 82
2019-11-17 17:00:00 7.8 10 Sur 22 Sur 0 932.2 -1.7 83
2019-11-17 16:00:00 7.1 10 Sur 24 Sur 0 932.9 -1.8 87
2019-11-17 15:00:00 6.6 14 Sur 28 Sur 0 933.2 -2.4 85
2019-11-17 14:00:00 6.5 11 Sur 28 Sur 0 933.9 -2 82
2019-11-17 13:00:00 6 11 Sur 22 Sur 0 934.7 -1 88
2019-11-17 12:00:00 5.4 9 Sur 23 Sur 0 935.6 0.2 89
2019-11-17 11:00:00 4.9 9 Sur 23 Sur 0 935.9 0.5 83
2019-11-17 10:00:00 4.4 9 Sur 18 Sudeste 0 935.7 0.4 74
2019-11-17 09:00:00 3 7 Sur 13 Sur 0 935.4 0.4 77
2019-11-17 08:00:00 1.7 6 Sur 12 Sudeste 0 935.4 0 79
2019-11-17 07:00:00 1.3 6 Sur 10 Sur 0 935.3 0.2 78
2019-11-17 06:00:00 1 6 Sudeste 10 Sudeste 0 935 -0.2 80
2019-11-17 05:00:00 1.2 4 Sur 9 Sur 0 935.4 -0.1 79
2019-11-17 04:00:00 1.4 5 Sur 10 Sudeste 0 935.1 -0.5 77
2019-11-17 03:00:00 1.4 5 Sudeste 10 Sur 0 935.2 -0.5 77
2019-11-17 02:00:00 1.5 5 Sur 10 Sur 0 935.5 -0.2 75
2019-11-17 01:00:00 2.4 6 Sur 11 Sudeste 0 935.6 -0.4 71
2019-11-17 00:00:00 2.3 5 Sur 9 Sur 0 935.7 0 72
2019-11-16 23:00:00 3 6 Sur 11 Sur 0 935.7 0.3 70
2019-11-16 22:00:00 3.4 5 Sudeste 9 Sudeste 0 936 1.1 67
2019-11-16 21:00:00 4.7 5 Sur 18 Sudoeste 0 935.7 1.3 62
2019-11-16 20:00:00 5.5 7 Sudoeste 18 Sudoeste 0 935.4 1.2 59
2019-11-16 19:00:00 6.4 7 Sudoeste 15 Sudoeste 0 934.9 1.2 56
2019-11-16 18:00:00 8.1 4 Sudoeste 13 Sudoeste 0 934.4 1 48
2019-11-16 17:00:00 8.9 4 Sudoeste 16 Sudoeste 0 934.2 0.6 44
2019-11-16 16:00:00 9.5 4 Sudoeste 18 Oeste 0 933.7 0.2 41
2019-11-16 15:00:00 9.4 4 Sudoeste 14 Sur 0 933.4 -0.6 45
2019-11-16 14:00:00 8.6 5 Oeste 15 Oeste 0 933.6 0 49
2019-11-16 13:00:00 8.1 5 Sudoeste 13 Sudoeste 0 933.5 0.3 54
2019-11-16 12:00:00 7 4 Sudoeste 12 Sudoeste 0 934 1.4 57
2019-11-16 11:00:00 5.1 3 Sudoeste 9 Sur 0.2 933.6 1.8 67
2019-11-16 10:00:00 2.1 5 Sudeste 8 Sur 0 933.2 2.5 82
2019-11-16 09:00:00 -0.2 2 Sudeste 6 Sur 0 932.6 2.9 89
2019-11-16 08:00:00 -0.9 0 Calma 7 Sudeste 0 931.8 2.8 87
2019-11-16 07:00:00 -0.5 4 Sudeste 6 Sudeste 0 930.7 2.2 89
2019-11-16 06:00:00 -0.5 0 Calma 4 Sudeste 0 929.7 1.5 88
2019-11-16 05:00:00 -0.3 2 Sur 5 Sur 0 929 1.1 86
2019-11-16 04:00:00 0.8 0 Calma 5 Sur 0 928.5 0.8 83
2019-11-16 03:00:00 1.4 3 Sudeste 6 Sudeste 0 928.2 0.7 82
2019-11-16 02:00:00 2 3 Sur 9 Sudeste 0 927.9 0.7 81
2019-11-16 01:00:00 2.9 4 Sur 12 Sur 0 927.7 0.8 79
2019-11-16 00:00:00 3.9 5 Sur 10 Sur 0 927.5 1.3 78